• Join FlightAware (Why Join?)
  • Login
  • US Flag 
Gobble Gobble! 
12:26PM EST


 

Airport Tracker/Info


-or-


 

Live Flight TrackerFlight Track Log ✈ EJA641 ✈ 01-May-2013 ✈ KUGN - KAPF

Flight Track Log - Related Links

Times and Time Zones

All times are in EDT time to prevent confusion due to time zone crossing. See the EJA641 flight status page for this flight to view local times or setup timezone preferences in your user account.

Time Position Orientation Groundspeed Altitude Reporting Facility
EDT Latitude Longitude Course Direction KTS MPH feet Rate Location/Type
07:16PM 42.3778 -87.9272 206° Southwest 197 227 3,700  Level Chicago Center
07:17PM 42.3292 -87.9589 206° Southwest 223 257 7,300 3,120 Climbing Chicago Center
07:18PM 42.2706 -87.9419 168° South 210 242 10,200 2,520 Climbing Chicago Center
07:19PM 42.1822 -87.9292 174° South 266 306 12,600 2,400 Climbing Chicago Center
07:20PM 42.1028 -87.9178 174° South 285 328 15,200 2,220 Climbing Chicago Center
07:21PM 42.0231 -87.9058 174° South 288 331 17,200 1,740 Climbing Chicago Center
07:22PM 41.9333 -87.8922 174° South 319 367 18,800 1,740 Climbing Chicago Center
07:23PM 41.8389 -87.8778 173° South 340 391 20,900 1,860 Climbing Chicago Center
07:24PM 41.7417 -87.8628 173° South 350 403 22,700 960 Climbing Chicago Center
07:25PM 41.6150 -87.8431 173° South 384 442 23,000 420 Climbing Chicago Center
07:26PM 41.5036 -87.8264 174° South 398 458 23,600 960 Climbing Chicago Center
07:27PM 41.3947 -87.8106 174° South 390 449 25,000 660 Climbing Chicago Center
07:28PM 41.2861 -87.7908 172° South 390 449 25,000  Level Chicago Center
07:29PM 41.1822 -87.7667 170° South 380 437 25,000  Level Chicago Center
07:30PM 41.0792 -87.7431 170° South 376 433 25,000  Level Chicago Center
07:31PM 40.9739 -87.7181 170° South 383 441 25,000  Level Chicago Center
07:32PM 40.8486 -87.6897 170° South 382 440 25,000  Level Chicago Center
07:33PM 40.7439 -87.6656 170° South 383 441 25,000  Level Chicago Center
07:34PM 40.6383 -87.6408 170° South 387 445 25,000  Level Chicago Center
07:36PM 40.5333 -87.6158 170° South 385 443 25,000  Level Chicago Center
07:37PM 40.4272 -87.5914 170° South 389 448 25,000  Level Chicago Center
07:38PM 40.2994 -87.5644 171° South 390 449 25,000  Level Chicago Center
07:39PM 40.1936 -87.5400 170° South 389 448 25,000  Level Chicago Center
07:40PM 40.0931 -87.5178 170° South 389 448 25,000  Level Chicago Center
07:40PM 40.0367 -87.5067 171° South 389 448 25,000  Level Indianapolis Center
07:41PM 39.9131 -87.4803 171° South 385 443 25,000  Level Indianapolis Center
07:42PM 39.8061 -87.4556 170° South 386 444 25,000  Level Indianapolis Center
07:43PM 39.7006 -87.4317 170° South 385 443 25,000  Level Indianapolis Center
07:44PM 39.5939 -87.4092 171° South 386 444 25,000  Level Indianapolis Center
07:45PM 39.4894 -87.3858 170° South 381 438 25,000  Level Indianapolis Center
07:46PM 39.3842 -87.3633 171° South 380 437 25,000  Level Indianapolis Center
07:47PM 39.2789 -87.3397 170° South 381 438 25,000  Level Indianapolis Center
07:48PM 39.1553 -87.3128 170° South 381 438 25,000  Level Indianapolis Center
07:49PM 39.0647 -87.2928 170° South 382 440 25,000  Level Indianapolis Center
07:50PM 38.9597 -87.2706 171° South 382 440 25,000  Level Indianapolis Center
07:51PM 38.8342 -87.2436 171° South 380 437 25,000  Level Indianapolis Center
07:53PM 38.7294 -87.2208 170° South 381 438 25,000  Level Indianapolis Center
07:54PM 38.6244 -87.1981 170° South 382 440 25,000  Level Indianapolis Center
07:55PM 38.5194 -87.1758 171° South 381 438 25,000  Level Indianapolis Center
07:56PM 38.4153 -87.1547 171° South 381 438 25,000  Level Indianapolis Center
07:57PM 38.2956 -87.1275 170° South 385 443 25,000  Level Indianapolis Center
07:58PM 38.1906 -87.1069 171° South 383 441 25,000  Level Indianapolis Center
07:59PM 38.0864 -87.0847 170° South 381 438 25,000  Level Indianapolis Center
08:00PM 37.9814 -87.0625 171° South 382 440 25,000  Level Indianapolis Center
08:01PM 37.8778 -87.0406 171° South 378 435 25,000  Level Indianapolis Center
08:02PM 37.7739 -87.0183 170° South 377 434 25,000  Level Indianapolis Center
08:03PM 37.6697 -86.9969 171° South 377 434 25,000  Level Indianapolis Center
08:03PM 37.6150 -86.9853 170° South 375 432 25,000  Level Memphis Center
08:04PM 37.5022 -86.9639 171° South 375 432 25,000  Level Memphis Center
08:05PM 37.3994 -86.9422 170° South 375 432 25,000  Level Memphis Center
08:06PM 37.2947 -86.9206 171° South 375 432 25,000  Level Memphis Center
08:07PM 37.1919 -86.8989 170° South 374 430 25,000  Level Memphis Center
08:08PM 37.0892 -86.8775 171° South 374 430 25,000  Level Memphis Center
08:09PM 36.9889 -86.8586 171° South 374 430 25,000  Level Memphis Center
08:10PM 36.8861 -86.8369 170° South 374 430 25,000  Level Memphis Center
08:11PM 36.7833 -86.8156 171° South 374 430 25,000  Level Memphis Center
08:12PM 36.6931 -86.7964 170° South 374 430 25,000  Level Memphis Center
08:13PM 36.5906 -86.7750 170° South 374 430 25,000  Level Memphis Center
08:14PM 36.4897 -86.7536 170° South 374 430 25,000  Level Memphis Center
08:15PM 36.3892 -86.7325 170° South 374 430 25,000  Level Memphis Center
08:16PM 36.2717 -86.7094 171° South 374 430 25,000  Level Memphis Center
08:17PM 36.1689 -86.6908 172° South 379 436 25,000  Level Memphis Center
08:18PM 36.0678 -86.6542 164° South 379 436 25,000  Level Memphis Center
08:19PM 35.9703 -86.6047 158° South 374 430 25,000  Level Memphis Center
08:20PM 35.8731 -86.5556 158° South 379 436 25,000  Level Memphis Center
08:22PM 35.6861 -86.4625 158° South 393 452 25,000  Level Atlanta Center
08:23PM 35.5869 -86.4136 158° South 388 447 25,000  Level Atlanta Center
08:25PM 35.3883 -86.3161 158° South 388 447 25,000  Level Atlanta Center
08:26PM 35.2892 -86.2703 159° South 388 447 25,000  Level Atlanta Center
08:27PM 35.1942 -86.2194 156° South 388 447 25,000  Level Atlanta Center
08:28PM 35.0947 -86.1711 158° South 388 447 25,000  Level Atlanta Center
08:29PM 35.0058 -86.1308 160° South 388 447 25,000  Level Atlanta Center
08:30PM 34.8981 -86.0775 158° South 388 447 25,000  Level Atlanta Center
08:31PM 34.8008 -86.0294 158° South 388 447 25,000  Level Atlanta Center
08:32PM 34.7036 -85.9817 158° South 388 447 25,000  Level Atlanta Center
08:33PM 34.6042 -85.9339 158° South 388 447 25,000  Level Atlanta Center
08:34PM 34.5067 -85.8889 159° South 388 447 25,000  Level Atlanta Center
08:35PM 34.4133 -85.8417 157° South 383 441 25,000  Level Atlanta Center
08:36PM 34.3203 -85.7994 159° South 364 419 25,000  Level Atlanta Center
08:37PM 34.2247 -85.7572 160° South 364 419 25,000  Level Atlanta Center
08:38PM 34.1314 -85.7153 160° South 364 419 25,000  Level Atlanta Center
08:39PM 34.0464 -85.6733 158° South 364 419 25,000  Level Atlanta Center
08:40PM 33.9553 -85.6292 158° South 364 419 25,000  Level Atlanta Center
08:41PM 33.8597 -85.5872 160° South 364 419 25,000  Level Atlanta Center
08:42PM 33.7683 -85.5431 158° South 359 413 25,000  Level Atlanta Center
08:43PM 33.6750 -85.5017 160° South 364 419 25,000  Level Atlanta Center
08:44PM 33.5817 -85.4575 158° South 364 419 25,000  Level Atlanta Center
08:45PM 33.4903 -85.4139 158° South 361 415 25,000  Level Atlanta Center
08:46PM 33.3967 -85.3725 160° South 361 415 25,000  Level Atlanta Center
08:47PM 33.2992 -85.3261 158° South 367 422 25,000  Level Atlanta Center
08:48PM 33.1972 -85.2800 159° South 367 422 25,000  Level Atlanta Center
08:49PM 33.1017 -85.2367 159° South 367 422 25,000  Level Atlanta Center
08:50PM 33.0103 -85.1908 157° South 361 415 25,000  Level Atlanta Center
08:51PM 32.9106 -85.1572 164° South 368 423 25,000  Level Atlanta Center
08:52PM 32.8147 -85.1289 166° South 362 417 25,000  Level Atlanta Center
08:53PM 32.7169 -85.0931 163° South 356 410 25,000  Level Atlanta Center
08:54PM 32.6211 -85.0597 164° South 362 417 25,000  Level Atlanta Center
08:55PM 32.5233 -85.0267 164° South 356 410 25,000  Level Atlanta Center
08:56PM 32.4256 -84.9936 164° South 360 414 25,000  Level Atlanta Center
08:57PM 32.3297 -84.9606 164° South 360 414 25,000  Level Atlanta Center
08:58PM 32.2464 -84.9353 166° South 353 406 25,000  Level Atlanta Center
08:59PM 32.1486 -84.9000 163° South 358 412 25,000  Level Atlanta Center
09:00PM 32.0528 -84.8697 165° South 358 412 25,000  Level Atlanta Center
09:02PM 31.8806 -84.8108 164° South 351 404 25,000  Level Jacksonville Center
09:03PM 31.7892 -84.7819 165° South 351 404 25,000  Level Jacksonville Center
09:04PM 31.6894 -84.7481 164° South 358 412 25,000  Level Jacksonville Center
09:05PM 31.5958 -84.7169 164° South 358 412 25,000  Level Jacksonville Center
09:06PM 31.5025 -84.6836 163° South 352 405 25,000  Level Jacksonville Center
09:07PM 31.4028 -84.6525 165° South 357 411 25,000  Level Jacksonville Center
09:08PM 31.3092 -84.6214 164° South 357 411 25,000  Level Jacksonville Center
09:09PM 31.2178 -84.5761 157° South 357 411 25,000  Level Jacksonville Center
09:10PM 31.1267 -84.5258 155° Southeast 357 411 25,000  Level Jacksonville Center
09:11PM 31.0356 -84.4733 154° Southeast 357 411 25,000  Level Jacksonville Center
09:12PM 30.9464 -84.4233 154° Southeast 357 411 25,000  Level Jacksonville Center
09:13PM 30.8550 -84.3736 155° Southeast 357 411 25,000  Level Jacksonville Center
09:14PM 30.7658 -84.3239 154° Southeast 357 411 25,000  Level Jacksonville Center
09:15PM 30.6725 -84.2717 154° Southeast 357 411 25,000  Level Jacksonville Center
09:16PM 30.5811 -84.2222 155° Southeast 357 411 25,000  Level Jacksonville Center
09:17PM 30.4836 -84.1653 153° Southeast 357 411 25,000  Level Jacksonville Center
09:18PM 30.3900 -84.1183 157° South 357 411 25,000  Level Jacksonville Center
09:19PM 30.2986 -84.0667 154° Southeast 357 411 25,000  Level Jacksonville Center
09:20PM 30.2031 -84.0125 154° Southeast 362 417 25,000  Level Jacksonville Center
09:21PM 30.1097 -83.9658 157° South 362 417 25,000  Level Jacksonville Center
09:22PM 30.0097 -83.9289 162° South 368 423 25,000  Level Jacksonville Center
09:23PM 29.9097 -83.8989 165° South 368 423 25,000  Level Jacksonville Center
09:24PM 29.8119 -83.8669 164° South 368 423 25,000  Level Jacksonville Center
09:25PM 29.7119 -83.8325 163° South 373 429 25,000  Level Jacksonville Center
09:26PM 29.6119 -83.8003 164° South 373 429 25,000  Level Jacksonville Center
09:27PM 29.5225 -83.7686 163° South 379 436 25,000  Level Jacksonville Center
09:28PM 29.4244 -83.7389 165° South 379 436 25,000  Level Jacksonville Center
09:29PM 29.3244 -83.7047 163° South 379 436 25,000  Level Jacksonville Center
09:30PM 29.2267 -83.6706 163° South 374 430 25,000  Level Jacksonville Center
09:31PM 29.1267 -83.6414 166° South 374 430 25,000  Level Jacksonville Center
09:32PM 29.0308 -83.6075 163° South 374 430 25,000  Level Jacksonville Center
09:33PM 28.9350 -83.5783 165° South 374 430 25,000  Level Jacksonville Center
09:34PM 28.8350 -83.5419 162° South 374 430 25,000  Level Jacksonville Center
09:36PM 28.6583 -83.4878 165° South 371 427 25,000  Level Miami Center
09:37PM 28.5558 -83.4533 164° South 376 433 25,000  Level Miami Center
09:38PM 28.4592 -83.4242 165° South 376 433 25,000  Level Miami Center
09:39PM 28.3583 -83.3900 163° South 376 433 25,000  Level Miami Center
09:40PM 28.2533 -83.3628 167° South 376 433 25,000  Level Miami Center
09:41PM 28.1508 -83.3708 184° South 371 427 25,000 -420 Level Miami Center
09:42PM 28.0497 -83.3486 169° South 371 427 24,200 -1,080 Descending Miami Center
09:43PM 27.9628 -83.2872 148° Southeast 356 410 22,900 -1,200 Descending Miami Center
09:44PM 27.8797 -83.2286 148° Southeast 356 410 21,800 -960 Descending Miami Center
09:45PM 27.7969 -83.1700 148° Southeast 356 410 21,000 -840 Descending Miami Center
09:46PM 27.7161 -83.1117 147° Southeast 356 410 20,200 -1,080 Descending Miami Center
09:47PM 27.6350 -83.0581 150° Southeast 344 396 18,900 -1,380 Descending Miami Center
09:48PM 27.5600 -83.0047 148° Southeast 333 383 17,500 -1,380 Descending Miami Center
09:49PM 27.4828 -82.9539 150° Southeast 322 371 16,200 -1,320 Descending Miami Center
09:50PM 27.4100 -82.9008 147° Southeast 322 371 14,900 -1,320 Descending Miami Center
09:51PM 27.3350 -82.8503 149° Southeast 316 364 13,600 -960 Descending Miami Center
09:52PM 27.2661 -82.8022 148° Southeast 306 352 13,000 -300 Descending Miami Center
09:53PM 27.1969 -82.7567 150° Southeast 301 346 13,000  Level Miami Center
09:54PM 27.1197 -82.7039 149° Southeast 301 346 13,000  Level Miami Center
09:55PM 27.0508 -82.6561 148° Southeast 301 346 13,000  Level Miami Center
09:56PM 26.9797 -82.6083 149° Southeast 301 346 13,000 -180 Level Miami Center
09:57PM 26.9086 -82.5581 148° Southeast 301 346 12,700 -780 Descending Miami Center
09:58PM 26.8394 -82.5106 148° Southeast 301 346 11,500 -1,200 Descending Miami Center
09:59PM 26.7664 -82.4606 149° Southeast 301 346 10,400 -780 Descending Miami Center
10:00PM 26.6931 -82.4106 149° Southeast 306 352 10,000 -240 Descending Miami Center
10:01PM 26.6217 -82.3631 149° Southeast 306 352 10,000  Level Miami Center
10:02PM 26.5550 -82.3114 145° Southeast 301 346 10,000  Level Miami Center
10:03PM 26.4856 -82.2639 149° Southeast 296 341 10,000  Level Miami Center
10:04PM 26.4167 -82.2144 147° Southeast 296 341 10,000 -120 Level Miami Center
10:05PM 26.3475 -82.1650 147° Southeast 291 335 9,800 -240 Descending Miami Center
10:07PM 26.2030 -82.0618 152° Southeast  Level FlightAware Approximate
10:14PM 26.1524 -81.7756 66° East  Level Estimated
10:15PM 26.1524 -81.7756 66° East  Level Estimated
10:16PM 26.1524 -81.7756 66° East  Level Estimated